Time;durP1;ratioP1;P1;durP2;ratioP2;P2;SDS_P1;SDS_P2;PMS_P1;PMS_P2;Temp;Humidity;BMP_temperature;BMP_pressure;BME280_temperature;BME280_humidity;BME280_pressure;Samples;Min_cycle;Max_cycle;Signal;HPM_P1;HPM_P2
2021/09/25 00:01:18;;;;;;;9.10;6.53;;;;;;;11.28;84.75;95765.97;6194708;23;20155;-78
2021/09/25 00:03:43;;;;;;;8.27;6.93;;;;;;;11.31;84.61;95770.09;6194385;23;20162;-78
2021/09/25 00:06:09;;;;;;;7.23;6.50;;;;;;;11.30;84.52;95774.44;6196087;23;20186;-78
2021/09/25 00:08:34;;;;;;;12.57;7.37;;;;;;;11.31;85.12;95777.91;6195074;23;20166;-78
2021/09/25 00:10:59;;;;;;;8.73;6.60;;;;;;;11.36;84.99;95773.06;6170676;23;20163;-78
2021/09/25 00:13:25;;;;;;;7.83;6.90;;;;;;;11.33;84.87;95776.78;6194091;23;20187;-78
2021/09/25 00:15:50;;;;;;;7.87;6.87;;;;;;;11.42;84.55;95777.69;6168801;23;20485;-78
2021/09/25 00:18:15;;;;;;;7.53;6.80;;;;;;;11.41;84.75;95764.84;6191958;23;20230;-78
2021/09/25 00:20:41;;;;;;;8.27;7.33;;;;;;;11.37;84.86;95760.88;6195122;23;20162;-79
2021/09/25 00:23:06;;;;;;;8.50;7.37;;;;;;;11.30;84.48;95756.25;6195172;23;20146;-79
2021/09/25 00:25:32;;;;;;;11.10;7.13;;;;;;;11.28;84.43;95759.97;6193171;23;20200;-79
2021/09/25 00:27:57;;;;;;;9.80;7.27;;;;;;;11.30;85.10;95764.03;6195548;23;20166;-79
2021/09/25 00:30:23;;;;;;;7.90;6.97;;;;;;;11.25;84.59;95755.06;6194493;23;20248;-80
2021/09/25 00:32:49;;;;;;;10.33;7.37;;;;;;;11.18;84.72;95760.03;6169429;23;20261;-79
2021/09/25 00:35:15;;;;;;;8.33;7.03;;;;;;;11.12;84.92;95770.19;6194596;23;20158;-79
2021/09/25 00:37:41;;;;;;;8.60;6.97;;;;;;;11.09;85.10;95773.09;6169732;23;20570;-79
2021/09/25 00:40:08;;;;;;;10.30;7.93;;;;;;;11.05;85.11;95773.38;6169884;23;20162;-77
2021/09/25 00:42:33;;;;;;;7.50;6.73;;;;;;;11.04;84.94;95776.09;6195909;23;20154;-80
2021/09/25 00:44:59;;;;;;;12.43;8.17;;;;;;;11.03;85.12;95771.88;6194160;23;20155;-77
2021/09/25 00:47:24;;;;;;;11.80;7.67;;;;;;;11.17;85.44;95767.97;6168155;23;20175;-77
2021/09/25 00:49:50;;;;;;;9.03;7.47;;;;;;;11.26;85.45;95764.50;6166515;23;20649;-77
2021/09/25 00:52:15;;;;;;;10.40;7.40;;;;;;;11.34;85.00;95764.59;6194571;23;20174;-80
2021/09/25 00:54:40;;;;;;;8.97;7.73;;;;;;;11.41;84.81;95768.25;6195776;23;20325;-79
2021/09/25 00:57:06;;;;;;;9.57;8.30;;;;;;;11.42;84.39;95776.88;6172020;23;20179;-79
2021/09/25 00:59:32;;;;;;;8.40;7.60;;;;;;;11.47;84.58;95769.41;6195704;23;20155;-79
2021/09/25 01:01:58;;;;;;;7.83;7.03;;;;;;;11.39;84.73;95767.56;6170933;23;20596;-79
2021/09/25 01:04:23;;;;;;;8.00;7.20;;;;;;;11.38;84.76;95765.09;6170637;23;20265;-79
2021/09/25 01:06:48;;;;;;;8.60;7.70;;;;;;;11.31;84.79;95757.09;6196659;23;20201;-80
2021/09/25 01:09:14;;;;;;;8.47;7.40;;;;;;;11.24;84.98;95758.63;6196404;23;20679;-80
2021/09/25 01:11:39;;;;;;;11.17;8.03;;;;;;;11.24;84.76;95756.84;6170984;23;20483;-79
2021/09/25 01:14:04;;;;;;;9.70;7.27;;;;;;;11.21;84.69;95754.53;6196141;23;20186;-80
2021/09/25 01:16:30;;;;;;;8.33;7.47;;;;;;;11.17;85.04;95752.38;6196862;23;20177;-79
2021/09/25 01:18:56;;;;;;;8.17;7.13;;;;;;;11.09;85.21;95754.88;6196917;23;20151;-80
2021/09/25 01:21:21;;;;;;;8.30;7.07;;;;;;;10.99;85.26;95758.38;6171586;23;20245;-79
2021/09/25 01:23:46;;;;;;;8.60;7.70;;;;;;;10.94;85.07;95757.97;6171063;23;20160;-79
2021/09/25 01:26:12;;;;;;;7.43;6.73;;;;;;;10.89;85.35;95764.56;6171966;23;20178;-80
2021/09/25 01:28:39;;;;;;;7.90;7.10;;;;;;;10.88;85.63;95763.75;6171812;23;20155;-80
2021/09/25 01:31:08;;;;;;;8.10;7.30;;;;;;;10.89;85.61;95770.59;6196267;23;20158;-80
2021/09/25 01:33:38;;;;;;;8.37;7.57;;;;;;;10.86;85.68;95768.25;6195873;23;20209;-79
2021/09/25 01:36:04;;;;;;;9.50;7.47;;;;;;;11.07;85.51;95776.66;6171117;23;20618;-80
2021/09/25 01:38:29;;;;;;;7.83;7.10;;;;;;;11.03;84.97;95774.47;6170698;23;20205;-79
2021/09/25 01:40:54;;;;;;;7.70;7.00;;;;;;;10.95;85.30;95776.97;6195399;23;20158;-79
2021/09/25 01:43:20;;;;;;;8.43;7.13;;;;;;;10.89;85.58;95775.78;6170456;23;20162;-80
2021/09/25 01:45:46;;;;;;;8.30;7.40;;;;;;;10.83;85.84;95765.97;6193569;23;20233;-78
2021/09/25 01:48:11;;;;;;;8.80;7.90;;;;;;;10.88;85.93;95768.13;6195295;23;20151;-79
2021/09/25 01:50:37;;;;;;;8.13;7.23;;;;;;;10.99;86.08;95768.75;6169356;23;20151;-80
2021/09/25 01:53:02;;;;;;;10.17;8.43;;;;;;;11.02;85.78;95760.66;6170689;23;20201;-79
2021/09/25 01:55:28;;;;;;;12.37;8.33;;;;;;;10.98;85.67;95758.50;6194856;23;20174;-79
2021/09/25 01:57:53;;;;;;;9.67;7.53;;;;;;;10.95;85.60;95754.41;6198012;23;20214;-79
2021/09/25 02:00:19;;;;;;;7.80;7.03;;;;;;;10.90;85.79;95754.03;6195834;23;20166;-80
2021/09/25 02:02:45;;;;;;;10.27;7.67;;;;;;;10.84;85.76;95757.19;6196334;23;20185;-79
2021/09/25 02:05:11;;;;;;;9.00;7.57;;;;;;;10.81;85.84;95756.69;6194723;23;20150;-79
2021/09/25 02:07:36;;;;;;;9.57;7.40;;;;;;;10.82;86.00;95759.13;6193515;23;20640;-80
2021/09/25 02:10:03;;;;;;;8.57;7.67;;;;;;;10.78;86.20;95766.41;6168905;23;20154;-79
2021/09/25 02:12:28;;;;;;;7.97;7.17;;;;;;;10.85;85.91;95764.03;6195742;23;20191;-79
2021/09/25 02:14:53;;;;;;;9.80;7.67;;;;;;;10.84;85.95;95767.59;6192879;23;20616;-80
2021/09/25 02:17:21;;;;;;;9.33;8.43;;;;;;;10.87;86.23;95766.50;6196534;23;20179;-79
2021/09/25 02:19:47;;;;;;;8.73;7.63;;;;;;;10.96;86.18;95771.66;6195508;23;20150;-79
2021/09/25 02:22:12;;;;;;;8.50;7.53;;;;;;;11.04;85.99;95766.56;6194498;23;20158;-79
2021/09/25 02:24:37;;;;;;;9.33;8.37;;;;;;;11.11;85.85;95768.56;6168583;23;20169;-80
2021/09/25 02:27:04;;;;;;;10.53;8.30;;;;;;;11.10;85.84;95756.53;6196026;23;20632;-80
2021/09/25 02:29:29;;;;;;;8.57;7.63;;;;;;;11.17;85.76;95754.97;6194163;23;20159;-80
2021/09/25 02:31:54;;;;;;;10.10;8.77;;;;;;;11.15;85.47;95752.53;6196070;23;20161;-80
2021/09/25 02:34:20;;;;;;;12.47;8.00;;;;;;;11.11;85.75;95747.75;6194076;23;20158;-80
2021/09/25 02:36:45;;;;;;;10.87;8.53;;;;;;;11.19;85.77;95755.66;6168387;23;20182;-79
2021/09/25 02:39:10;;;;;;;9.30;8.13;;;;;;;11.24;85.27;95753.44;6193428;23;20527;-79
2021/09/25 02:41:36;;;;;;;9.03;7.80;;;;;;;11.19;85.36;95748.66;6193103;23;20150;-79
2021/09/25 02:44:01;;;;;;;9.47;8.57;;;;;;;11.11;85.48;95745.97;6191699;23;20154;-79
2021/09/25 02:46:26;;;;;;;10.97;8.50;;;;;;;11.05;85.76;95734.41;6168200;23;20213;-79
2021/09/25 02:48:52;;;;;;;9.03;7.77;;;;;;;10.94;85.44;95741.56;6192492;23;20161;-77
2021/09/25 02:51:17;;;;;;;8.67;7.27;;;;;;;10.84;85.88;95744.22;6192215;23;20150;-79
2021/09/25 02:53:43;;;;;;;8.20;7.40;;;;;;;10.79;86.06;95733.44;6193955;23;20245;-78
2021/09/25 02:56:09;;;;;;;7.30;6.57;;;;;;;10.74;86.50;95725.25;6167253;23;20190;-80
2021/09/25 02:58:34;;;;;;;9.20;7.73;;;;;;;10.70;86.58;95729.13;6191800;23;20237;-79
2021/09/25 03:00:59;;;;;;;8.03;7.10;;;;;;;10.66;86.18;95728.56;6192824;23;20160;-79
2021/09/25 03:03:25;;;;;;;8.43;7.20;;;;;;;10.55;86.52;95725.34;6167305;23;20602;-79
2021/09/25 03:05:50;;;;;;;8.57;7.67;;;;;;;10.44;86.62;95724.56;6193874;23;20175;-79
2021/09/25 03:08:15;;;;;;;9.33;8.00;;;;;;;10.41;87.27;95724.03;6194841;23;20605;-79
2021/09/25 03:10:40;;;;;;;8.93;7.00;;;;;;;10.41;87.42;95724.84;6167550;23;20158;-79
2021/09/25 03:13:06;;;;;;;11.27;8.23;;;;;;;10.46;88.13;95727.84;6166602;23;20246;-79
2021/09/25 03:15:32;;;;;;;8.97;8.00;;;;;;;10.61;87.93;95729.97;6190973;23;20209;-79
2021/09/25 03:17:57;;;;;;;10.93;9.13;;;;;;;10.71;88.19;95725.56;6192196;23;20154;-79
2021/09/25 03:20:22;;;;;;;10.87;8.13;;;;;;;10.69;87.49;95723.09;6193268;23;20660;-79
2021/09/25 03:22:48;;;;;;;9.17;8.13;;;;;;;10.59;87.42;95724.91;6193744;23;20147;-79
2021/09/25 03:25:14;;;;;;;9.13;8.13;;;;;;;10.53;87.37;95720.31;6192093;23;20552;-79
2021/09/25 03:27:40;;;;;;;9.90;7.73;;;;;;;10.46;87.74;95722.66;6193687;23;20254;-79
2021/09/25 03:30:07;;;;;;;9.23;7.77;;;;;;;10.41;87.89;95724.84;6167649;23;20154;-78
2021/09/25 03:32:32;;;;;;;8.80;7.50;;;;;;;10.34;87.88;95728.16;6192496;23;20269;-79
2021/09/25 03:34:58;;;;;;;12.23;8.00;;;;;;;10.30;88.25;95722.41;6166152;23;20158;-78
2021/09/25 03:37:23;;;;;;;10.20;7.87;;;;;;;10.28;88.67;95724.34;6167908;23;20193;-79
2021/09/25 03:39:49;;;;;;;10.60;8.17;;;;;;;10.27;88.50;95733.09;6167632;23;20162;-79
2021/09/25 03:42:14;;;;;;;8.60;7.23;;;;;;;10.24;88.58;95727.34;6167208;23;20163;-80
2021/09/25 03:44:39;;;;;;;8.90;8.00;;;;;;;10.22;88.65;95724.91;6191863;23;20217;-80
2021/09/25 03:47:05;;;;;;;8.07;7.27;;;;;;;10.21;88.23;95723.25;6191184;23;20175;-78
2021/09/25 03:49:30;;;;;;;7.53;6.73;;;;;;;10.20;88.56;95727.63;6190484;23;20155;-79
2021/09/25 03:51:55;;;;;;;8.30;7.40;;;;;;;10.12;88.65;95718.91;6191292;23;20159;-78
2021/09/25 03:54:21;;;;;;;10.57;8.07;;;;;;;10.04;88.23;95721.38;6166244;23;20651;-78
2021/09/25 03:56:46;;;;;;;9.43;8.30;;;;;;;10.00;88.26;95720.03;6192057;23;20197;-79
2021/09/25 03:59:11;;;;;;;9.07;8.03;;;;;;;9.96;88.63;95724.66;6190962;23;20233;-79
2021/09/25 04:01:37;;;;;;;10.43;7.30;;;;;;;9.92;88.40;95724.13;6166109;23;20154;-78
2021/09/25 04:04:02;;;;;;;8.33;7.27;;;;;;;9.88;88.64;95722.75;6165482;23;20485;-79
2021/09/25 04:06:27;;;;;;;9.40;7.40;;;;;;;9.85;88.60;95723.03;6192911;23;20170;-79
2021/09/25 04:08:53;;;;;;;9.40;6.70;;;;;;;9.82;88.77;95717.31;6190813;23;20150;-78
2021/09/25 04:11:19;;;;;;;8.50;7.47;;;;;;;9.80;88.74;95720.03;6190644;23;20213;-78
2021/09/25 04:13:44;;;;;;;8.87;7.10;;;;;;;9.79;88.83;95727.97;6165324;23;20241;-78
2021/09/25 04:16:09;;;;;;;9.97;7.80;;;;;;;9.76;88.85;95729.06;6191665;23;20170;-79
2021/09/25 04:18:35;;;;;;;8.07;7.27;;;;;;;9.77;89.31;95730.69;6191819;23;20208;-79
2021/09/25 04:21:00;;;;;;;9.63;8.03;;;;;;;9.77;89.54;95725.50;6191901;23;20277;-78
2021/09/25 04:23:25;;;;;;;12.27;8.47;;;;;;;9.79;89.70;95723.59;6192902;23;20171;-80
2021/09/25 04:25:51;;;;;;;9.83;8.10;;;;;;;9.78;89.81;95729.72;6191233;23;20670;-78
2021/09/25 04:28:16;;;;;;;10.17;8.23;;;;;;;9.77;89.79;95722.91;6193990;23;20159;-79
2021/09/25 04:30:41;;;;;;;11.73;7.83;;;;;;;9.76;89.53;95726.47;6168937;23;20159;-78
2021/09/25 04:33:09;;;;;;;9.50;7.87;;;;;;;9.77;89.41;95725.50;6193621;23;20229;-79
2021/09/25 04:35:35;;;;;;;9.87;8.43;;;;;;;9.81;89.88;95726.88;6193287;23;20257;-79
2021/09/25 04:38:00;;;;;;;9.27;8.33;;;;;;;9.92;90.29;95728.50;6168330;23;20154;-79
2021/09/25 04:40:27;;;;;;;10.70;9.40;;;;;;;10.01;90.63;95734.63;6193303;23;20158;-79
2021/09/25 04:42:52;;;;;;;10.63;9.00;;;;;;;10.04;90.75;95736.94;6192928;23;20656;-79
2021/09/25 04:45:18;;;;;;;10.67;9.10;;;;;;;10.11;90.67;95735.41;6189559;23;20158;-79
2021/09/25 04:47:45;;;;;;;13.30;9.33;;;;;;;10.18;91.09;95731.31;6163856;23;20175;-78
2021/09/25 04:50:12;;;;;;;11.30;9.00;;;;;;;10.21;90.73;95741.41;6187904;23;20154;-79
2021/09/25 04:52:37;;;;;;;9.83;8.83;;;;;;;10.31;91.12;95734.44;6164198;23;20193;-78
2021/09/25 04:55:04;;;;;;;10.07;8.77;;;;;;;10.35;90.65;95733.22;6187953;23;20167;-80
2021/09/25 04:57:29;;;;;;;12.73;8.27;;;;;;;10.37;90.58;95733.06;6193549;23;20175;-79
2021/09/25 04:59:54;;;;;;;9.20;8.20;;;;;;;10.40;90.29;95731.00;6167907;23;20173;-78
2021/09/25 05:02:19;;;;;;;9.83;8.30;;;;;;;10.44;90.32;95727.16;6191832;23;20181;-79
2021/09/25 05:04:45;;;;;;;9.47;8.27;;;;;;;10.42;90.22;95712.66;6164364;23;20601;-79
2021/09/25 05:07:10;;;;;;;10.77;7.73;;;;;;;10.40;89.71;95725.81;6165397;23;20495;-79
2021/09/25 05:09:35;;;;;;;8.73;7.83;;;;;;;10.35;89.81;95719.41;6190767;23;20615;-78
2021/09/25 05:12:01;;;;;;;9.93;7.73;;;;;;;10.28;89.57;95718.34;6190590;23;20166;-78
2021/09/25 05:14:26;;;;;;;8.57;7.00;;;;;;;10.22;89.42;95719.72;6188201;23;20462;-79
2021/09/25 05:16:52;;;;;;;8.73;7.57;;;;;;;10.17;89.35;95716.72;6191968;23;20177;-79
2021/09/25 05:19:17;;;;;;;10.10;7.50;;;;;;;10.14;89.28;95717.78;6165845;23;20675;-78
2021/09/25 05:21:42;;;;;;;8.13;7.27;;;;;;;10.13;89.38;95716.16;6190443;23;20155;-79
2021/09/25 05:24:07;;;;;;;9.77;7.40;;;;;;;10.16;89.20;95721.09;6189682;23;20490;-79
2021/09/25 05:26:35;;;;;;;7.40;6.60;;;;;;;10.20;89.16;95716.41;6165459;23;20178;-79
2021/09/25 05:29:01;;;;;;;8.63;7.53;;;;;;;10.22;88.93;95717.13;6189826;23;20162;-79
2021/09/25 05:31:27;;;;;;;9.93;7.60;;;;;;;10.24;88.74;95719.56;6189796;23;20154;-79
2021/09/25 05:33:52;;;;;;;7.60;6.80;;;;;;;10.24;88.85;95711.78;6190656;23;20190;-79
2021/09/25 05:36:17;;;;;;;7.57;6.77;;;;;;;10.23;88.09;95716.16;6189306;23;20179;-79
2021/09/25 05:38:43;;;;;;;7.83;6.87;;;;;;;10.20;88.27;95711.22;6163026;23;20159;-81
2021/09/25 05:41:08;;;;;;;8.60;6.93;;;;;;;10.23;87.95;95707.56;6189001;23;20147;-80
2021/09/25 05:43:33;;;;;;;7.57;6.77;;;;;;;10.21;87.92;95705.88;6166309;23;20151;-79
2021/09/25 05:45:59;;;;;;;9.73;7.40;;;;;;;10.21;88.09;95708.47;6162199;23;20186;-79
2021/09/25 05:48:25;;;;;;;8.37;7.47;;;;;;;10.23;87.75;95713.56;6184684;23;20577;-82
2021/09/25 05:50:50;;;;;;;8.37;7.07;;;;;;;10.32;87.73;95719.69;6184576;23;20224;-79
2021/09/25 05:53:15;;;;;;;7.43;6.60;;;;;;;10.35;87.81;95714.22;6182285;23;20644;-78
2021/09/25 05:55:41;;;;;;;8.10;6.50;;;;;;;10.38;87.69;95717.34;6150922;23;20483;-80
2021/09/25 05:58:06;;;;;;;8.00;6.83;;;;;;;10.44;87.81;95719.38;6155704;23;20181;-79
2021/09/25 06:00:31;;;;;;;8.23;6.70;;;;;;;10.54;87.58;95719.34;6181354;23;20151;-80
2021/09/25 06:03:01;;;;;;;7.90;7.10;;;;;;;10.60;87.99;95729.16;6157869;23;20154;-79
2021/09/25 06:05:27;;;;;;;8.43;6.70;;;;;;;10.63;88.53;95723.69;6186456;23;20150;-79
2021/09/25 06:07:52;;;;;;;9.13;7.53;;;;;;;10.66;88.15;95719.97;6183944;23;20166;-80
2021/09/25 06:10:17;;;;;;;8.80;7.20;;;;;;;10.81;87.63;95720.31;6183120;23;20158;-79
2021/09/25 06:12:43;;;;;;;7.93;6.60;;;;;;;11.03;87.68;95719.91;6158794;23;20190;-79
2021/09/25 06:15:08;;;;;;;10.03;7.17;;;;;;;11.20;86.89;95720.88;6182212;23;20161;-79
2021/09/25 06:17:34;;;;;;;7.73;6.87;;;;;;;11.34;86.50;95717.78;6158215;23;20187;-80
2021/09/25 06:19:59;;;;;;;7.13;6.43;;;;;;;11.40;86.27;95717.22;6182435;23;20154;-79
2021/09/25 06:22:25;;;;;;;7.73;6.93;;;;;;;11.46;86.30;95711.41;6158207;23;20165;-79
2021/09/25 06:24:51;;;;;;;7.30;6.60;;;;;;;11.56;85.93;95713.91;6157528;23;20250;-79
2021/09/25 06:27:17;;;;;;;8.33;6.40;;;;;;;11.61;85.95;95704.72;6182628;23;20178;-79
2021/09/25 06:29:42;;;;;;;7.33;6.23;;;;;;;11.70;85.67;95717.78;6157738;23;20182;-79
2021/09/25 06:32:07;;;;;;;7.43;5.83;;;;;;;11.75;85.36;95723.34;6181999;23;20182;-81
2021/09/25 06:34:33;;;;;;;7.47;6.50;;;;;;;11.78;84.75;95728.25;6181262;23;20151;-82
2021/09/25 06:36:58;;;;;;;7.20;6.40;;;;;;;11.84;84.59;95725.09;6181957;23;20174;-81
2021/09/25 06:39:23;;;;;;;7.23;6.53;;;;;;;11.93;84.44;95724.19;6184266;23;20248;-84
2021/09/25 06:41:49;;;;;;;7.20;6.10;;;;;;;11.99;83.53;95722.75;6159392;23;20600;-83
2021/09/25 06:44:14;;;;;;;6.30;5.70;;;;;;;12.08;83.62;95727.84;6158177;23;20877;-84
2021/09/25 06:46:40;;;;;;;6.40;5.80;;;;;;;12.17;82.86;95736.53;6156513;23;20316;-77
2021/09/25 06:49:05;;;;;;;5.97;5.20;;;;;;;12.28;82.78;95723.28;6155824;23;20476;-79
2021/09/25 06:51:31;;;;;;;6.30;5.70;;;;;;;12.38;82.09;95723.19;6182061;23;20154;-80
2021/09/25 06:53:56;;;;;;;7.17;6.27;;;;;;;12.46;81.74;95725.84;6181308;23;20174;-77
2021/09/25 06:56:23;;;;;;;6.13;5.53;;;;;;;12.54;81.42;95725.84;6155977;23;20187;-76
2021/09/25 06:58:48;;;;;;;6.80;5.60;;;;;;;12.65;81.47;95725.59;6182093;23;20158;-78
2021/09/25 07:01:13;;;;;;;6.27;5.67;;;;;;;12.77;81.36;95720.91;6182254;23;20165;-78
2021/09/25 07:03:39;;;;;;;5.20;4.70;;;;;;;12.88;81.33;95725.84;6181140;23;20154;-78
2021/09/25 07:06:04;;;;;;;6.10;4.90;;;;;;;12.97;80.63;95730.09;6156971;23;20264;-79
2021/09/25 07:08:29;;;;;;;5.93;5.32;;;;;;;13.12;80.22;95732.13;6181711;23;20379;-78
2021/09/25 07:10:55;;;;;;;6.37;5.77;;;;;;;13.21;79.73;95734.63;6182023;23;20163;-79
2021/09/25 07:13:20;;;;;;;6.13;5.47;;;;;;;13.30;79.05;95738.06;6157316;23;20179;-80
2021/09/25 07:15:46;;;;;;;5.63;4.90;;;;;;;13.38;79.08;95740.69;6156493;23;20233;-79
2021/09/25 07:18:11;;;;;;;5.33;4.83;;;;;;;13.48;78.74;95745.75;6182328;23;20161;-80
2021/09/25 07:20:37;;;;;;;5.13;4.67;;;;;;;13.54;78.55;95753.78;6155846;23;20181;-80
2021/09/25 07:23:03;;;;;;;6.23;5.17;;;;;;;13.55;78.33;95744.16;6157253;23;20234;-78
2021/09/25 07:25:29;;;;;;;5.50;5.00;;;;;;;13.64;77.91;95748.41;6156149;23;20171;-77
2021/09/25 07:27:55;;;;;;;5.00;4.50;;;;;;;13.71;77.17;95748.56;6184005;23;20147;-78
2021/09/25 07:30:21;;;;;;;5.30;4.80;;;;;;;13.77;77.15;95748.72;6156446;23;20154;-78
2021/09/25 07:32:46;;;;;;;4.73;4.33;;;;;;;13.86;76.62;95746.94;6181725;23;20237;-78
2021/09/25 07:35:13;;;;;;;4.73;4.27;;;;;;;13.94;76.33;95756.56;6181510;23;20606;-78
2021/09/25 07:37:39;;;;;;;4.40;4.00;;;;;;;14.04;76.22;95758.03;6181922;23;20170;-78
2021/09/25 07:40:05;;;;;;;6.53;4.20;;;;;;;14.08;75.45;95763.75;6160246;23;20163;-79
2021/09/25 07:42:31;;;;;;;5.27;4.43;;;;;;;14.17;75.59;95770.59;6183456;23;20155;-79
2021/09/25 07:44:57;;;;;;;5.70;4.27;;;;;;;14.27;75.28;95770.44;6181286;23;20151;-79
2021/09/25 07:47:22;;;;;;;6.30;4.83;;;;;;;14.29;74.85;95758.84;6156806;23;20185;-80
2021/09/25 07:49:48;;;;;;;5.50;5.00;;;;;;;14.51;74.12;95769.63;6151868;23;20647;-79
2021/09/25 07:52:13;;;;;;;6.53;4.57;;;;;;;14.52;73.86;95771.25;6178121;23;20139;-79
2021/09/25 07:54:38;;;;;;;5.27;4.50;;;;;;;14.51;73.61;95767.00;6176906;23;20162;-80
2021/09/25 07:57:04;;;;;;;4.53;4.10;;;;;;;14.53;74.27;95770.28;6152999;23;20261;-80
2021/09/25 07:59:29;;;;;;;7.93;5.17;;;;;;;14.59;73.93;95761.78;6177677;23;20162;-81
2021/09/25 08:01:55;;;;;;;5.70;5.20;;;;;;;14.65;74.34;95768.91;6179471;23;20150;-78
2021/09/25 08:04:20;;;;;;;6.53;5.17;;;;;;;14.74;74.02;95758.28;6177558;23;20234;-79
2021/09/25 08:06:46;;;;;;;5.37;4.87;;;;;;;14.82;73.63;95760.06;6180400;23;20266;-79
2021/09/25 08:09:11;;;;;;;5.37;4.87;;;;;;;14.90;74.13;95773.09;6152836;23;20154;-79
2021/09/25 08:11:36;;;;;;;5.07;4.63;;;;;;;15.02;72.43;95769.16;6155187;23;20779;-78
2021/09/25 08:14:02;;;;;;;5.03;4.43;;;;;;;15.16;71.44;95769.41;6154424;23;20186;-79
2021/09/25 08:16:27;;;;;;;5.77;4.97;;;;;;;15.33;69.86;95757.88;6181619;23;20178;-78
2021/09/25 08:18:54;;;;;;;5.55;4.13;;;;;;;15.38;69.68;95760.81;6180508;23;20555;-79
2021/09/25 08:21:19;;;;;;;4.60;4.20;;;;;;;15.41;70.14;95757.03;6180046;23;20163;-79
2021/09/25 08:23:44;;;;;;;4.63;4.22;;;;;;;15.48;69.38;95756.16;6154111;23;20630;-80
2021/09/25 08:26:10;;;;;;;4.70;4.30;;;;;;;15.58;69.19;95766.41;6154622;23;20188;-79
2021/09/25 08:28:35;;;;;;;5.20;4.70;;;;;;;15.69;69.61;95763.41;6154916;23;20155;-78
2021/09/25 08:31:00;;;;;;;6.17;5.67;;;;;;;15.91;69.29;95769.66;6178801;23;20474;-80
2021/09/25 08:33:26;;;;;;;6.18;5.20;;;;;;;15.97;68.99;95771.56;6179678;23;20182;-79
2021/09/25 08:35:51;;;;;;;5.40;4.90;;;;;;;16.14;68.57;95765.22;6180286;23;20226;-79
2021/09/25 08:38:16;;;;;;;6.55;4.85;;;;;;;16.20;69.07;95766.31;6181176;23;20162;-79
2021/09/25 08:40:41;;;;;;;5.68;4.88;;;;;;;16.22;69.03;95771.38;6182690;23;20185;-79
2021/09/25 08:43:07;;;;;;;6.72;5.18;;;;;;;16.34;68.92;95775.19;6184023;23;20143;-80
2021/09/25 08:45:32;;;;;;;5.57;4.80;;;;;;;16.38;68.94;95769.44;6156876;23;20593;-78
2021/09/25 08:47:58;;;;;;;6.97;4.70;;;;;;;16.43;67.29;95758.41;6183398;23;20214;-79
2021/09/25 08:50:24;;;;;;;6.47;4.68;;;;;;;16.61;66.78;95761.53;6157619;23;20158;-79
2021/09/25 08:52:49;;;;;;;6.55;4.50;;;;;;;16.76;66.73;95758.91;6182261;23;20185;-78
2021/09/25 08:55:15;;;;;;;9.65;4.65;;;;;;;16.95;66.85;95760.19;6181586;23;20178;-79
2021/09/25 08:57:40;;;;;;;5.85;4.80;;;;;;;17.06;65.67;95753.69;6157409;23;20213;-78
2021/09/25 09:00:34;;;;;;;4.93;4.50;;;;;;;17.08;65.39;95760.38;6185648;23;20154;-82
2021/09/25 09:03:27;;;;;;;5.05;4.60;;;;;;;17.18;65.95;95766.16;6184069;23;20505;-82
2021/09/25 09:06:02;;;;;;;5.47;4.97;;;;;;;17.36;64.37;95768.38;6158113;23;20593;-82
2021/09/25 09:08:27;;;;;;;5.35;4.60;;;;;;;17.46;64.13;95762.84;6158841;23;20242;-82
2021/09/25 09:10:53;;;;;;;5.80;4.80;;;;;;;17.52;64.64;95767.34;6158987;23;20189;-80
2021/09/25 09:13:19;;;;;;;4.85;4.32;;;;;;;17.60;63.58;95759.38;6183513;23;20197;-84
2021/09/25 09:15:49;;;;;;;5.35;4.65;;;;;;;17.60;63.58;95762.00;6183300;23;20249;-83
2021/09/25 09:18:16;;;;;;;5.40;4.40;;;;;;;17.78;61.84;95766.84;6157623;23;20158;-82
2021/09/25 09:21:01;;;;;;;4.68;4.22;;;;;;;17.71;61.36;95771.22;6184257;23;20154;-81
2021/09/25 09:23:26;;;;;;;5.82;5.32;;;;;;;17.79;61.72;95771.91;6183631;23;20166;-80
2021/09/25 09:25:51;;;;;;;4.75;4.30;;;;;;;17.75;62.67;95759.31;6183020;23;20499;-81
2021/09/25 09:28:22;;;;;;;4.95;4.47;;;;;;;17.88;63.34;95762.09;6158446;23;20163;-79
2021/09/25 09:30:49;;;;;;;5.45;4.53;;;;;;;17.99;62.68;95763.41;6158210;23;20587;-80
2021/09/25 09:33:31;;;;;;;5.30;4.80;;;;;;;18.17;60.75;95770.84;6183478;23;20292;-80
2021/09/25 09:36:15;;;;;;;5.80;5.18;;;;;;;18.38;61.54;95774.28;6157130;23;20489;-80
2021/09/25 09:38:53;;;;;;;4.93;4.53;;;;;;;18.45;62.08;95773.50;6186544;23;20177;-79
2021/09/25 09:41:39;;;;;;;5.32;4.82;;;;;;;18.51;61.46;95776.19;6162355;23;20174;-81
2021/09/25 09:44:10;;;;;;;5.40;4.93;;;;;;;18.41;60.08;95765.19;6184982;23;20206;-82
2021/09/25 09:46:37;;;;;;;5.60;4.80;;;;;;;18.54;62.31;95767.09;6165197;23;20273;-80
2021/09/25 09:49:04;;;;;;;5.40;4.90;;;;;;;18.60;61.46;95761.88;6187324;23;20226;-83
2021/09/25 09:51:57;;;;;;;5.28;4.75;;;;;;;18.67;60.16;95759.34;6163069;23;20425;-82
2021/09/25 09:54:28;;;;;;;5.70;4.80;;;;;;;18.76;61.19;95758.19;6160541;23;20273;-83
2021/09/25 09:56:59;;;;;;;6.22;5.22;;;;;;;18.81;62.28;95755.75;6187926;23;20358;-82
2021/09/25 09:59:26;;;;;;;5.53;5.03;;;;;;;18.84;61.92;95755.41;6160781;23;20170;-79
2021/09/25 10:01:51;;;;;;;5.63;4.75;;;;;;;18.78;61.26;95752.72;6157482;23;20208;-80
2021/09/25 10:04:18;;;;;;;5.05;4.60;;;;;;;18.93;62.11;95743.72;6183150;23;20159;-80
2021/09/25 10:06:44;;;;;;;5.60;5.10;;;;;;;19.07;62.91;95741.13;6184171;23;20177;-80
2021/09/25 10:09:12;;;;;;;6.65;5.32;;;;;;;19.13;62.93;95748.25;6158977;23;20159;-81
2021/09/25 10:11:40;;;;;;;5.15;4.70;;;;;;;19.18;61.89;95741.41;6158007;23;20155;-80
2021/09/25 10:14:06;;;;;;;7.70;5.10;;;;;;;19.15;62.08;95740.97;6182793;23;20191;-80
2021/09/25 10:16:32;;;;;;;5.78;4.85;;;;;;;19.13;61.10;95746.44;6181994;23;20170;-80
2021/09/25 10:19:03;;;;;;;5.38;4.88;;;;;;;19.23;61.87;95746.06;6184377;23;20209;-81
2021/09/25 10:21:33;;;;;;;5.80;5.30;;;;;;;19.30;60.76;95746.91;6184323;23;20147;-80
2021/09/25 10:24:04;;;;;;;5.60;5.10;;;;;;;19.22;60.81;95747.06;6158415;23;20179;-79
2021/09/25 10:26:30;;;;;;;6.97;5.03;;;;;;;19.22;61.64;95741.81;6188029;23;20194;-79
2021/09/25 10:29:05;;;;;;;5.45;4.80;;;;;;;19.26;61.03;95743.06;6163079;23;20154;-80
2021/09/25 10:31:30;;;;;;;5.70;5.15;;;;;;;19.33;62.20;95745.69;6191101;23;20643;-80
2021/09/25 10:34:26;;;;;;;6.13;5.63;;;;;;;19.43;60.27;95741.66;6183299;23;20175;-79
2021/09/25 10:36:54;;;;;;;6.05;4.47;;;;;;;19.56;60.49;95730.41;6159077;23;20219;-80
2021/09/25 10:39:29;;;;;;;6.18;4.63;;;;;;;19.62;59.69;95736.72;6185716;23;20950;-79
2021/09/25 10:42:06;;;;;;;6.40;5.38;;;;;;;19.76;59.53;95739.16;6186292;23;20150;-80
2021/09/25 10:44:33;;;;;;;6.72;5.10;;;;;;;19.82;59.43;95737.56;6186810;23;20173;-79
2021/09/25 10:47:11;;;;;;;5.78;5.28;;;;;;;19.88;58.95;95734.13;6186536;23;20178;-79
2021/09/25 10:49:45;;;;;;;5.60;5.10;;;;;;;19.76;59.15;95731.25;6161383;23;20158;-80
2021/09/25 10:52:12;;;;;;;5.18;4.68;;;;;;;19.81;59.99;95730.69;6160185;23;20495;-81
2021/09/25 10:54:37;;;;;;;6.18;5.57;;;;;;;19.98;59.71;95736.38;6203195;23;20177;-80
2021/09/25 10:57:07;;;;;;;5.85;5.35;;;;;;;19.86;60.18;95728.22;6198972;23;20210;-79
2021/09/25 10:59:33;;;;;;;6.00;5.43;;;;;;;19.97;59.82;95727.66;6157389;23;20172;-84
2021/09/25 11:01:58;;;;;;;7.28;6.00;;;;;;;20.09;58.89;95731.31;6156802;23;20161;-80
2021/09/25 11:04:23;;;;;;;6.70;6.10;;;;;;;19.83;60.59;95727.84;6183742;23;20147;-80
2021/09/25 11:06:51;;;;;;;6.25;5.75;;;;;;;19.88;60.95;95733.28;6182455;23;20184;-80
2021/09/25 11:09:39;;;;;;;6.30;5.70;;;;;;;19.92;60.89;95729.25;6183644;23;20161;-79
2021/09/25 11:12:10;;;;;;;9.63;5.80;;;;;;;19.75;60.91;95739.38;6182500;23;20146;-79
2021/09/25 11:14:39;;;;;;;5.47;5.00;;;;;;;19.88;61.64;95728.88;6157006;23;20179;-79
2021/09/25 11:17:19;;;;;;;5.78;5.18;;;;;;;19.91;61.76;95727.63;6182518;23;20221;-78
2021/09/25 11:20:01;;;;;;;5.80;5.30;;;;;;;19.98;61.52;95733.75;6183015;23;20185;-80
2021/09/25 11:22:39;;;;;;;6.35;5.75;;;;;;;19.89;60.79;95730.47;6183135;23;20150;-79
2021/09/25 11:25:18;;;;;;;7.20;5.55;;;;;;;19.91;61.44;95727.63;6157655;23;20166;-84
2021/09/25 11:27:46;;;;;;;6.15;5.22;;;;;;;19.94;61.15;95730.69;6183435;23;20741;-80
2021/09/25 11:30:13;;;;;;;7.75;5.57;;;;;;;19.98;59.71;95728.47;6158266;23;20177;-80